sensor_id;sensor_type;location;lat;lon;timestamp;pressure;altitude;pressure_sealevel;temperature;humidity
61554;BME280;47425;51.976;5.326;2023-11-21T00:01:46;100931.28;;;12.16;61.17
61554;BME280;47425;51.976;5.326;2023-11-21T00:04:13;100928.25;;;11.98;61.02
61554;BME280;47425;51.976;5.326;2023-11-21T00:06:40;100932.00;;;11.86;61.74
61554;BME280;47425;51.976;5.326;2023-11-21T00:09:07;100927.75;;;11.81;61.49
61554;BME280;47425;51.976;5.326;2023-11-21T00:11:36;100929.72;;;11.72;61.27
61554;BME280;47425;51.976;5.326;2023-11-21T00:14:04;100934.25;;;11.64;61.33
61554;BME280;47425;51.976;5.326;2023-11-21T00:16:31;100939.72;;;11.55;61.44
61554;BME280;47425;51.976;5.326;2023-11-21T00:18:57;100933.47;;;11.61;62.45
61554;BME280;47425;51.976;5.326;2023-11-21T00:21:24;100935.66;;;11.79;62.91
61554;BME280;47425;51.976;5.326;2023-11-21T00:23:51;100941.06;;;11.73;61.86
61554;BME280;47425;51.976;5.326;2023-11-21T00:26:18;100934.31;;;11.61;61.36
61554;BME280;47425;51.976;5.326;2023-11-21T00:28:51;100935.53;;;11.46;61.36
61554;BME280;47425;51.976;5.326;2023-11-21T00:31:19;100936.69;;;11.34;61.39
61554;BME280;47425;51.976;5.326;2023-11-21T00:33:46;100942.88;;;11.30;61.37
61554;BME280;47425;51.976;5.326;2023-11-21T00:36:12;100935.91;;;11.29;61.41
61554;BME280;47425;51.976;5.326;2023-11-21T00:38:39;100944.03;;;11.17;61.30
61554;BME280;47425;51.976;5.326;2023-11-21T00:41:05;100950.53;;;10.99;61.46
61554;BME280;47425;51.976;5.326;2023-11-21T00:43:32;100940.22;;;10.91;61.80
61554;BME280;47425;51.976;5.326;2023-11-21T00:46:03;100951.63;;;10.88;61.88
61554;BME280;47425;51.976;5.326;2023-11-21T00:48:31;100947.44;;;10.80;61.86
61554;BME280;47425;51.976;5.326;2023-11-21T00:50:59;100951.91;;;10.74;61.92
61554;BME280;47425;51.976;5.326;2023-11-21T00:53:26;100958.19;;;10.64;61.71
61554;BME280;47425;51.976;5.326;2023-11-21T00:55:52;100956.59;;;10.57;62.03
61554;BME280;47425;51.976;5.326;2023-11-21T00:58:22;100962.78;;;10.51;62.14
61554;BME280;47425;51.976;5.326;2023-11-21T01:00:48;100956.78;;;10.45;61.92
61554;BME280;47425;51.976;5.326;2023-11-21T01:03:16;100964.81;;;10.34;62.23
61554;BME280;47425;51.976;5.326;2023-11-21T01:05:44;100966.56;;;10.33;62.42
61554;BME280;47425;51.976;5.326;2023-11-21T01:08:10;100977.03;;;10.33;62.36
61554;BME280;47425;51.976;5.326;2023-11-21T01:10:37;100986.72;;;10.28;62.17
61554;BME280;47425;51.976;5.326;2023-11-21T01:13:03;100979.00;;;10.22;62.28
61554;BME280;47425;51.976;5.326;2023-11-21T01:15:32;100985.13;;;10.18;62.47
61554;BME280;47425;51.976;5.326;2023-11-21T01:17:58;100988.69;;;10.14;62.62
61554;BME280;47425;51.976;5.326;2023-11-21T01:20:25;100993.13;;;10.10;62.61
61554;BME280;47425;51.976;5.326;2023-11-21T01:22:52;100993.16;;;10.07;63.13
61554;BME280;47425;51.976;5.326;2023-11-21T01:25:20;100990.50;;;10.12;62.89
61554;BME280;47425;51.976;5.326;2023-11-21T01:27:48;100990.38;;;10.19;63.00
61554;BME280;47425;51.976;5.326;2023-11-21T01:30:15;100979.50;;;10.44;64.34
61554;BME280;47425;51.976;5.326;2023-11-21T01:32:41;100982.69;;;10.62;63.77
61554;BME280;47425;51.976;5.326;2023-11-21T01:35:08;100982.47;;;10.72;63.44
61554;BME280;47425;51.976;5.326;2023-11-21T01:37:36;100989.53;;;10.70;62.82
61554;BME280;47425;51.976;5.326;2023-11-21T01:40:05;100980.44;;;10.88;64.00
61554;BME280;47425;51.976;5.326;2023-11-21T01:42:40;100991.06;;;10.81;62.43
61554;BME280;47425;51.976;5.326;2023-11-21T01:45:06;100984.22;;;10.73;62.47
61554;BME280;47425;51.976;5.326;2023-11-21T01:47:34;100992.84;;;10.79;62.60
61554;BME280;47425;51.976;5.326;2023-11-21T01:50:01;100998.22;;;10.71;62.33
61554;BME280;47425;51.976;5.326;2023-11-21T01:52:29;101000.00;;;10.70;62.32
61554;BME280;47425;51.976;5.326;2023-11-21T01:54:57;100997.56;;;10.60;62.14
61554;BME280;47425;51.976;5.326;2023-11-21T01:57:25;100996.81;;;10.51;62.27
61554;BME280;47425;51.976;5.326;2023-11-21T01:59:52;100999.53;;;10.47;62.32
61554;BME280;47425;51.976;5.326;2023-11-21T02:02:20;101005.69;;;10.44;62.34
61554;BME280;47425;51.976;5.326;2023-11-21T02:04:46;101013.63;;;10.39;62.49
61554;BME280;47425;51.976;5.326;2023-11-21T02:07:14;101008.53;;;10.30;62.49
61554;BME280;47425;51.976;5.326;2023-11-21T02:09:40;101020.84;;;10.23;62.74
61554;BME280;47425;51.976;5.326;2023-11-21T02:12:08;101023.53;;;10.17;62.94
61554;BME280;47425;51.976;5.326;2023-11-21T02:14:36;101032.25;;;10.18;63.28
61554;BME280;47425;51.976;5.326;2023-11-21T02:17:03;101030.53;;;10.17;63.38
61554;BME280;47425;51.976;5.326;2023-11-21T02:19:31;101037.50;;;10.19;63.71
61554;BME280;47425;51.976;5.326;2023-11-21T02:21:57;101039.91;;;10.32;63.65
61554;BME280;47425;51.976;5.326;2023-11-21T02:24:30;101039.72;;;10.44;63.73
61554;BME280;47425;51.976;5.326;2023-11-21T02:26:57;101035.22;;;10.52;63.40
61554;BME280;47425;51.976;5.326;2023-11-21T02:29:23;101040.25;;;10.65;63.51
61554;BME280;47425;51.976;5.326;2023-11-21T02:31:54;101038.47;;;10.67;63.16
61554;BME280;47425;51.976;5.326;2023-11-21T02:34:21;101034.97;;;10.68;63.04
61554;BME280;47425;51.976;5.326;2023-11-21T02:36:48;101035.75;;;10.73;62.88
61554;BME280;47425;51.976;5.326;2023-11-21T02:39:16;101036.56;;;10.75;63.01
61554;BME280;47425;51.976;5.326;2023-11-21T02:41:44;101042.69;;;10.74;62.80
61554;BME280;47425;51.976;5.326;2023-11-21T02:44:11;101038.41;;;10.70;62.54
61554;BME280;47425;51.976;5.326;2023-11-21T02:46:38;101044.59;;;10.66;62.81
61554;BME280;47425;51.976;5.326;2023-11-21T02:49:05;101046.34;;;10.65;63.05
61554;BME280;47425;51.976;5.326;2023-11-21T02:51:32;101043.69;;;10.68;63.13
61554;BME280;47425;51.976;5.326;2023-11-21T02:53:58;101043.66;;;10.70;63.30
61554;BME280;47425;51.976;5.326;2023-11-21T02:56:28;101038.47;;;10.67;63.33
61554;BME280;47425;51.976;5.326;2023-11-21T02:58:56;101040.25;;;10.65;63.27
61554;BME280;47425;51.976;5.326;2023-11-21T03:01:23;101032.41;;;10.63;63.44
61554;BME280;47425;51.976;5.326;2023-11-21T03:03:50;101040.94;;;10.76;63.80
61554;BME280;47425;51.976;5.326;2023-11-21T03:06:17;101043.03;;;11.02;64.30
61554;BME280;47425;51.976;5.326;2023-11-21T03:08:45;101047.22;;;11.13;63.79
61554;BME280;47425;51.976;5.326;2023-11-21T03:11:11;101042.56;;;11.29;63.89
61554;BME280;47425;51.976;5.326;2023-11-21T03:13:38;101045.03;;;11.36;63.59
61554;BME280;47425;51.976;5.326;2023-11-21T03:16:06;101039.84;;;11.32;63.04
61554;BME280;47425;51.976;5.326;2023-11-21T03:18:33;101043.59;;;11.20;62.89
61554;BME280;47425;51.976;5.326;2023-11-21T03:21:00;101043.50;;;11.24;63.21
61554;BME280;47425;51.976;5.326;2023-11-21T03:23:27;101046.13;;;11.24;63.15
61554;BME280;47425;51.976;5.326;2023-11-21T03:25:54;101052.22;;;11.25;63.13
61554;BME280;47425;51.976;5.326;2023-11-21T03:28:20;101056.50;;;11.29;63.22
61554;BME280;47425;51.976;5.326;2023-11-21T03:30:47;101049.13;;;11.50;63.74
61554;BME280;47425;51.976;5.326;2023-11-21T03:33:14;101048.84;;;11.62;63.73
61554;BME280;47425;51.976;5.326;2023-11-21T03:35:41;101048.78;;;11.65;63.08
61554;BME280;47425;51.976;5.326;2023-11-21T03:38:09;101060.38;;;11.53;62.74
61554;BME280;47425;51.976;5.326;2023-11-21T03:40:36;101059.03;;;11.35;62.69
61554;BME280;47425;51.976;5.326;2023-11-21T03:43:03;101060.22;;;11.19;63.10
61554;BME280;47425;51.976;5.326;2023-11-21T03:45:29;101053.44;;;11.08;63.31
61554;BME280;47425;51.976;5.326;2023-11-21T03:47:57;101060.19;;;11.20;63.76
61554;BME280;47425;51.976;5.326;2023-11-21T03:50:24;101063.50;;;11.30;63.63
61554;BME280;47425;51.976;5.326;2023-11-21T03:52:51;101071.50;;;11.24;63.47
61554;BME280;47425;51.976;5.326;2023-11-21T03:55:18;101072.31;;;11.26;63.53
61554;BME280;47425;51.976;5.326;2023-11-21T03:57:44;101073.22;;;11.23;63.57
61554;BME280;47425;51.976;5.326;2023-11-21T04:00:12;101066.44;;;11.15;63.65
61554;BME280;47425;51.976;5.326;2023-11-21T04:02:38;101079.53;;;11.15;63.81
61554;BME280;47425;51.976;5.326;2023-11-21T04:05:05;101075.91;;;11.20;63.90
61554;BME280;47425;51.976;5.326;2023-11-21T04:07:33;101078.47;;;11.23;63.92
61554;BME280;47425;51.976;5.326;2023-11-21T04:10:00;101073.09;;;11.31;64.01
61554;BME280;47425;51.976;5.326;2023-11-21T04:12:26;101081.66;;;11.39;63.78
61554;BME280;47425;51.976;5.326;2023-11-21T04:14:52;101086.72;;;11.49;63.90
61554;BME280;47425;51.976;5.326;2023-11-21T04:17:19;101093.34;;;11.68;64.66
61554;BME280;47425;51.976;5.326;2023-11-21T04:19:45;101102.03;;;11.70;63.72
61554;BME280;47425;51.976;5.326;2023-11-21T04:22:12;101100.47;;;11.62;63.61
61554;BME280;47425;51.976;5.326;2023-11-21T04:24:41;101107.44;;;11.61;63.48
61554;BME280;47425;51.976;5.326;2023-11-21T04:27:07;101111.56;;;11.74;63.66
61554;BME280;47425;51.976;5.326;2023-11-21T04:29:34;101121.22;;;11.71;63.18
61554;BME280;47425;51.976;5.326;2023-11-21T04:32:00;101117.16;;;11.56;63.04
61554;BME280;47425;51.976;5.326;2023-11-21T04:34:30;101121.66;;;11.51;63.10
61554;BME280;47425;51.976;5.326;2023-11-21T04:36:57;101121.53;;;11.57;63.45
61554;BME280;47425;51.976;5.326;2023-11-21T04:39:25;101116.13;;;11.65;63.36
61554;BME280;47425;51.976;5.326;2023-11-21T04:41:53;101117.59;;;11.78;63.71
61554;BME280;47425;51.976;5.326;2023-11-21T04:44:19;101126.25;;;11.83;63.21
61554;BME280;47425;51.976;5.326;2023-11-21T04:46:45;101131.56;;;11.79;63.11
61554;BME280;47425;51.976;5.326;2023-11-21T04:49:13;101134.09;;;11.85;63.45
61554;BME280;47425;51.976;5.326;2023-11-21T04:51:40;101138.13;;;12.01;63.74
61554;BME280;47425;51.976;5.326;2023-11-21T04:54:06;101136.28;;;12.06;63.21
61554;BME280;47425;51.976;5.326;2023-11-21T04:56:33;101137.16;;;12.05;63.08
61554;BME280;47425;51.976;5.326;2023-11-21T04:59:00;101145.94;;;12.06;63.04
61554;BME280;47425;51.976;5.326;2023-11-21T05:01:28;101149.28;;;12.13;63.10
61554;BME280;47425;51.976;5.326;2023-11-21T05:03:56;101150.00;;;12.19;62.65
61554;BME280;47425;51.976;5.326;2023-11-21T05:06:23;101144.53;;;12.30;63.11
61554;BME280;47425;51.976;5.326;2023-11-21T05:08:49;101147.72;;;12.43;63.19
61554;BME280;47425;51.976;5.326;2023-11-21T05:11:23;101152.72;;;12.54;63.32
61554;BME280;47425;51.976;5.326;2023-11-21T05:13:50;101162.28;;;12.56;62.73
61554;BME280;47425;51.976;5.326;2023-11-21T05:16:18;101160.56;;;12.55;62.55
61554;BME280;47425;51.976;5.326;2023-11-21T05:18:45;101161.47;;;12.53;62.52
61554;BME280;47425;51.976;5.326;2023-11-21T05:21:11;101166.72;;;12.54;62.52
61554;BME280;47425;51.976;5.326;2023-11-21T05:23:38;101173.69;;;12.55;62.41
61554;BME280;47425;51.976;5.326;2023-11-21T05:26:06;101168.59;;;12.49;62.39
61554;BME280;47425;51.976;5.326;2023-11-21T05:28:32;101167.06;;;12.39;62.29
61554;BME280;47425;51.976;5.326;2023-11-21T05:30:59;101175.09;;;12.31;62.22
61554;BME280;47425;51.976;5.326;2023-11-21T05:33:26;101172.16;;;12.47;63.59
61554;BME280;47425;51.976;5.326;2023-11-21T05:35:53;101176.13;;;12.63;63.00
61554;BME280;47425;51.976;5.326;2023-11-21T05:38:19;101181.56;;;12.55;62.65
61554;BME280;47425;51.976;5.326;2023-11-21T05:40:47;101190.34;;;12.56;62.80
61554;BME280;47425;51.976;5.326;2023-11-21T05:43:13;101184.75;;;12.70;63.82
61554;BME280;47425;51.976;5.326;2023-11-21T05:45:40;101185.91;;;12.94;63.38
61554;BME280;47425;51.976;5.326;2023-11-21T05:48:06;101183.44;;;13.22;63.42
61554;BME280;47425;51.976;5.326;2023-11-21T05:50:35;101174.16;;;13.43;62.66
61554;BME280;47425;51.976;5.326;2023-11-21T05:53:03;101175.00;;;13.46;62.43
61554;BME280;47425;51.976;5.326;2023-11-21T05:55:29;101192.78;;;13.34;62.00
61554;BME280;47425;51.976;5.326;2023-11-21T05:57:56;101197.72;;;13.14;61.61
61554;BME280;47425;51.976;5.326;2023-11-21T06:00:22;101202.44;;;12.99;62.35
61554;BME280;47425;51.976;5.326;2023-11-21T06:02:51;101210.25;;;13.02;62.63
61554;BME280;47425;51.976;5.326;2023-11-21T06:05:19;101205.66;;;13.10;62.67
61554;BME280;47425;51.976;5.326;2023-11-21T06:07:47;101212.19;;;13.30;63.05
61554;BME280;47425;51.976;5.326;2023-11-21T06:10:13;101211.81;;;13.46;62.67
61554;BME280;47425;51.976;5.326;2023-11-21T06:12:40;101217.25;;;13.71;63.42
61554;BME280;47425;51.976;5.326;2023-11-21T06:15:08;101224.97;;;13.79;61.70
61554;BME280;47425;51.976;5.326;2023-11-21T06:17:36;101229.91;;;13.58;61.42
61554;BME280;47425;51.976;5.326;2023-11-21T06:20:02;101233.31;;;13.27;61.38
61554;BME280;47425;51.976;5.326;2023-11-21T06:22:34;101229.03;;;13.23;62.13
61554;BME280;47425;51.976;5.326;2023-11-21T06:25:02;101236.34;;;13.10;62.35
61554;BME280;47425;51.976;5.326;2023-11-21T06:27:29;101246.06;;;13.06;62.30
61554;BME280;47425;51.976;5.326;2023-11-21T06:29:57;101247.75;;;13.09;62.32
61554;BME280;47425;51.976;5.326;2023-11-21T06:32:24;101248.59;;;13.11;62.53
61554;BME280;47425;51.976;5.326;2023-11-21T06:34:51;101251.19;;;13.13;62.69
61554;BME280;47425;51.976;5.326;2023-11-21T06:37:19;101247.44;;;13.23;63.18
61554;BME280;47425;51.976;5.326;2023-11-21T06:39:46;101247.53;;;13.18;62.70
61554;BME280;47425;51.976;5.326;2023-11-21T06:42:15;101251.28;;;13.09;62.93
61554;BME280;47425;51.976;5.326;2023-11-21T06:44:42;101251.59;;;12.96;62.66
61554;BME280;47425;51.976;5.326;2023-11-21T06:47:09;101253.59;;;12.86;63.41
61554;BME280;47425;51.976;5.326;2023-11-21T06:49:36;101251.88;;;12.83;63.58
61554;BME280;47425;51.976;5.326;2023-11-21T06:52:03;101253.59;;;12.86;64.06
61554;BME280;47425;51.976;5.326;2023-11-21T06:54:31;101245.59;;;12.90;64.08
61554;BME280;47425;51.976;5.326;2023-11-21T06:56:57;101262.88;;;13.01;63.92
61554;BME280;47425;51.976;5.326;2023-11-21T06:59:25;101265.19;;;13.13;64.20
61554;BME280;47425;51.976;5.326;2023-11-21T07:01:52;101268.28;;;13.31;64.16
61554;BME280;47425;51.976;5.326;2023-11-21T07:04:18;101277.75;;;13.39;63.97
61554;BME280;47425;51.976;5.326;2023-11-21T07:06:46;101281.28;;;13.38;63.24
61554;BME280;47425;51.976;5.326;2023-11-21T07:09:13;101281.31;;;13.35;63.08
61554;BME280;47425;51.976;5.326;2023-11-21T07:11:40;101293.44;;;13.42;63.75
61554;BME280;47425;51.976;5.326;2023-11-21T07:14:07;101290.66;;;13.49;63.30
61554;BME280;47425;51.976;5.326;2023-11-21T07:16:35;101290.50;;;13.55;63.24
61554;BME280;47425;51.976;5.326;2023-11-21T07:19:04;101306.22;;;13.58;63.28
61554;BME280;47425;51.976;5.326;2023-11-21T07:21:31;101297.53;;;13.54;63.19
61554;BME280;47425;51.976;5.326;2023-11-21T07:23:57;101306.41;;;13.50;63.01
61554;BME280;47425;51.976;5.326;2023-11-21T07:26:24;101316.00;;;13.53;63.35
61554;BME280;47425;51.976;5.326;2023-11-21T07:28:51;101311.09;;;13.39;62.93
61554;BME280;47425;51.976;5.326;2023-11-21T07:31:17;101317.34;;;13.32;63.09
61554;BME280;47425;51.976;5.326;2023-11-21T07:33:45;101318.28;;;13.29;63.79
61554;BME280;47425;51.976;5.326;2023-11-21T07:36:12;101318.25;;;13.31;63.56
61554;BME280;47425;51.976;5.326;2023-11-21T07:38:39;101323.75;;;13.20;63.79
61554;BME280;47425;51.976;5.326;2023-11-21T07:41:06;101322.06;;;13.19;64.31
61554;BME280;47425;51.976;5.326;2023-11-21T07:43:34;101328.91;;;13.26;64.72
61554;BME280;47425;51.976;5.326;2023-11-21T07:46:01;101322.56;;;13.33;64.25
61554;BME280;47425;51.976;5.326;2023-11-21T07:48:28;101327.50;;;13.49;64.15
61554;BME280;47425;51.976;5.326;2023-11-21T07:50:56;101315.06;;;13.55;64.35
61554;BME280;47425;51.976;5.326;2023-11-21T07:53:23;101316.28;;;13.75;63.73
61554;BME280;47425;51.976;5.326;2023-11-21T07:55:50;101329.22;;;13.86;63.51
61554;BME280;47425;51.976;5.326;2023-11-21T07:58:18;101336.31;;;13.82;63.34
61554;BME280;47425;51.976;5.326;2023-11-21T08:00:44;101338.38;;;13.69;63.22
61554;BME280;47425;51.976;5.326;2023-11-21T08:03:13;101345.63;;;13.61;63.31
61554;BME280;47425;51.976;5.326;2023-11-21T08:05:39;101346.72;;;13.51;63.27
61554;BME280;47425;51.976;5.326;2023-11-21T08:08:07;101350.47;;;13.42;63.68
61554;BME280;47425;51.976;5.326;2023-11-21T08:10:35;101355.16;;;13.27;63.59
61554;BME280;47425;51.976;5.326;2023-11-21T08:13:01;101365.13;;;13.15;64.42
61554;BME280;47425;51.976;5.326;2023-11-21T08:15:29;101362.25;;;13.24;64.97
61554;BME280;47425;51.976;5.326;2023-11-21T08:17:57;101370.28;;;13.18;64.76
61554;BME280;47425;51.976;5.326;2023-11-21T08:20:23;101373.22;;;13.05;64.69
61554;BME280;47425;51.976;5.326;2023-11-21T08:22:51;101378.47;;;13.05;65.25
61554;BME280;47425;51.976;5.326;2023-11-21T08:25:19;101384.78;;;12.97;65.77
61554;BME280;47425;51.976;5.326;2023-11-21T08:27:46;101386.78;;;12.85;66.03
61554;BME280;47425;51.976;5.326;2023-11-21T08:30:12;101390.19;;;12.90;66.40
61554;BME280;47425;51.976;5.326;2023-11-21T08:32:39;101391.13;;;12.86;66.33
61554;BME280;47425;51.976;5.326;2023-11-21T08:35:07;101397.34;;;12.82;66.58
61554;BME280;47425;51.976;5.326;2023-11-21T08:37:34;101410.69;;;12.71;66.92
61554;BME280;47425;51.976;5.326;2023-11-21T08:40:02;101416.13;;;12.64;67.10
61554;BME280;47425;51.976;5.326;2023-11-21T08:42:30;101418.81;;;12.61;67.09
61554;BME280;47425;51.976;5.326;2023-11-21T08:44:57;101417.84;;;12.65;67.26
61554;BME280;47425;51.976;5.326;2023-11-21T08:47:24;101419.69;;;12.61;67.69
61554;BME280;47425;51.976;5.326;2023-11-21T08:49:51;101422.31;;;12.59;67.70
61554;BME280;47425;51.976;5.326;2023-11-21T08:52:18;101431.13;;;12.58;68.14
61554;BME280;47425;51.976;5.326;2023-11-21T08:54:46;101420.75;;;12.51;68.38
61554;BME280;47425;51.976;5.326;2023-11-21T08:57:15;101439.22;;;12.48;68.52
61554;BME280;47425;51.976;5.326;2023-11-21T08:59:45;101442.69;;;12.48;68.80
61554;BME280;47425;51.976;5.326;2023-11-21T09:02:12;101436.47;;;12.52;69.17
61554;BME280;47425;51.976;5.326;2023-11-21T09:04:38;101440.78;;;12.56;69.38
61554;BME280;47425;51.976;5.326;2023-11-21T09:07:04;101447.97;;;12.47;69.26
61554;BME280;47425;51.976;5.326;2023-11-21T09:09:31;101444.56;;;12.41;69.73
61554;BME280;47425;51.976;5.326;2023-11-21T09:11:59;101449.13;;;12.32;69.72
61554;BME280;47425;51.976;5.326;2023-11-21T09:14:26;101464.75;;;12.38;69.78
61554;BME280;47425;51.976;5.326;2023-11-21T09:16:55;101463.97;;;12.34;69.86
61554;BME280;47425;51.976;5.326;2023-11-21T09:19:21;101469.06;;;12.44;70.44
61554;BME280;47425;51.976;5.326;2023-11-21T09:21:48;101467.06;;;12.56;70.31
61554;BME280;47425;51.976;5.326;2023-11-21T09:24:15;101460.97;;;12.53;69.98
61554;BME280;47425;51.976;5.326;2023-11-21T09:26:42;101465.50;;;12.46;69.92
61554;BME280;47425;51.976;5.326;2023-11-21T09:29:08;101462.88;;;12.46;70.05
61554;BME280;47425;51.976;5.326;2023-11-21T09:31:35;101457.56;;;12.49;69.90
61554;BME280;47425;51.976;5.326;2023-11-21T09:34:02;101481.06;;;12.55;70.41
61554;BME280;47425;51.976;5.326;2023-11-21T09:36:30;101482.16;;;12.45;70.61
61554;BME280;47425;51.976;5.326;2023-11-21T09:38:58;101476.75;;;12.54;70.90
61554;BME280;47425;51.976;5.326;2023-11-21T09:41:29;101488.75;;;12.66;70.96
61554;BME280;47425;51.976;5.326;2023-11-21T09:44:00;101489.38;;;12.81;70.42
61554;BME280;47425;51.976;5.326;2023-11-21T09:46:28;101491.00;;;12.86;69.81
61554;BME280;47425;51.976;5.326;2023-11-21T09:48:57;101492.88;;;12.80;70.16
61554;BME280;47425;51.976;5.326;2023-11-21T09:51:27;101509.03;;;12.61;70.24
61554;BME280;47425;51.976;5.326;2023-11-21T09:53:55;101517.13;;;12.47;70.57
61554;BME280;47425;51.976;5.326;2023-11-21T09:56:23;101514.41;;;12.53;70.81
61554;BME280;47425;51.976;5.326;2023-11-21T09:58:52;101528.25;;;12.63;70.99
61554;BME280;47425;51.976;5.326;2023-11-21T10:01:20;101537.00;;;12.64;70.65
61554;BME280;47425;51.976;5.326;2023-11-21T10:03:47;101530.78;;;12.69;70.74
61554;BME280;47425;51.976;5.326;2023-11-21T10:06:13;101530.84;;;12.65;70.46
61554;BME280;47425;51.976;5.326;2023-11-21T10:08:41;101533.63;;;12.55;70.59
61554;BME280;47425;51.976;5.326;2023-11-21T10:11:08;101534.78;;;12.39;70.63
61554;BME280;47425;51.976;5.326;2023-11-21T10:13:38;101543.53;;;12.41;70.75
61554;BME280;47425;51.976;5.326;2023-11-21T10:16:06;101542.41;;;12.53;71.64
61554;BME280;47425;51.976;5.326;2023-11-21T10:18:33;101553.13;;;12.44;71.01
61554;BME280;47425;51.976;5.326;2023-11-21T10:21:00;101561.16;;;12.31;71.33
61554;BME280;47425;51.976;5.326;2023-11-21T10:23:29;101554.09;;;12.36;71.55
61554;BME280;47425;51.976;5.326;2023-11-21T10:25:58;101560.13;;;12.43;70.95
61554;BME280;47425;51.976;5.326;2023-11-21T10:28:26;101568.91;;;12.40;71.20
61554;BME280;47425;51.976;5.326;2023-11-21T10:30:52;101567.06;;;12.46;71.03
61554;BME280;47425;51.976;5.326;2023-11-21T10:33:26;101565.97;;;12.59;71.33
61554;BME280;47425;51.976;5.326;2023-11-21T10:35:53;101577.41;;;12.56;71.04
61554;BME280;47425;51.976;5.326;2023-11-21T10:38:21;101582.69;;;12.55;71.20
61554;BME280;47425;51.976;5.326;2023-11-21T10:40:49;101578.44;;;12.48;71.74
61554;BME280;47425;51.976;5.326;2023-11-21T10:43:17;101579.41;;;12.40;71.89
61554;BME280;47425;51.976;5.326;2023-11-21T10:45:43;101583.88;;;12.37;71.78
61554;BME280;47425;51.976;5.326;2023-11-21T10:48:10;101592.69;;;12.31;72.04
61554;BME280;47425;51.976;5.326;2023-11-21T10:50:41;101605.19;;;12.17;71.84
61554;BME280;47425;51.976;5.326;2023-11-21T10:53:08;101608.72;;;12.14;72.03
61554;BME280;47425;51.976;5.326;2023-11-21T10:55:36;101616.59;;;12.14;72.03
61554;BME280;47425;51.976;5.326;2023-11-21T10:58:03;101609.81;;;11.99;72.44
61554;BME280;47425;51.976;5.326;2023-11-21T11:00:33;101611.41;;;12.09;72.40
61554;BME280;47425;51.976;5.326;2023-11-21T11:03:01;101615.25;;;11.82;72.26
61554;BME280;47425;51.976;5.326;2023-11-21T11:05:29;101617.75;;;11.91;72.43
61554;BME280;47425;51.976;5.326;2023-11-21T11:07:58;101628.19;;;11.99;72.54
61554;BME280;47425;51.976;5.326;2023-11-21T11:10:26;101620.16;;;12.10;72.65
61554;BME280;47425;51.976;5.326;2023-11-21T11:12:54;101622.81;;;12.07;72.08
61554;BME280;47425;51.976;5.326;2023-11-21T11:15:23;101633.53;;;11.87;71.70
61554;BME280;47425;51.976;5.326;2023-11-21T11:17:51;101631.97;;;11.75;71.92
61554;BME280;47425;51.976;5.326;2023-11-21T11:20:22;101629.31;;;11.78;71.66
61554;BME280;47425;51.976;5.326;2023-11-21T11:22:50;101634.59;;;11.75;71.83
61554;BME280;47425;51.976;5.326;2023-11-21T11:25:25;101627.63;;;11.72;71.93
61554;BME280;47425;51.976;5.326;2023-11-21T11:27:57;101636.28;;;11.79;71.90
61554;BME280;47425;51.976;5.326;2023-11-21T11:30:33;101630.25;;;11.71;71.61
61554;BME280;47425;51.976;5.326;2023-11-21T11:33:08;101643.53;;;11.57;71.86
61554;BME280;47425;51.976;5.326;2023-11-21T11:35:39;101639.97;;;11.66;71.72
61554;BME280;47425;51.976;5.326;2023-11-21T11:38:09;101644.22;;;11.74;71.68
61554;BME280;47425;51.976;5.326;2023-11-21T11:40:39;101650.44;;;11.67;71.91
61554;BME280;47425;51.976;5.326;2023-11-21T11:43:07;101651.22;;;11.74;71.77
61554;BME280;47425;51.976;5.326;2023-11-21T11:45:34;101655.31;;;11.98;71.92
61554;BME280;47425;51.976;5.326;2023-11-21T11:48:05;101658.75;;;12.02;71.39
61554;BME280;47425;51.976;5.326;2023-11-21T11:50:33;101662.31;;;11.99;70.92
61554;BME280;47425;51.976;5.326;2023-11-21T11:53:11;101661.53;;;11.88;71.21
61554;BME280;47425;51.976;5.326;2023-11-21T11:55:38;101666.84;;;11.83;71.33
61554;BME280;47425;51.976;5.326;2023-11-21T11:58:18;101668.53;;;11.89;71.58
61554;BME280;47425;51.976;5.326;2023-11-21T12:00:46;101672.97;;;11.84;71.59
61554;BME280;47425;51.976;5.326;2023-11-21T12:03:19;101671.22;;;11.83;71.94
61554;BME280;47425;51.976;5.326;2023-11-21T12:05:47;101680.75;;;11.91;71.98
61554;BME280;47425;51.976;5.326;2023-11-21T12:08:17;101679.06;;;11.86;71.41
61554;BME280;47425;51.976;5.326;2023-11-21T12:10:44;101684.25;;;11.90;71.60
61554;BME280;47425;51.976;5.326;2023-11-21T12:13:12;101679.88;;;11.89;71.57
61554;BME280;47425;51.976;5.326;2023-11-21T12:15:38;101697.38;;;11.95;71.54
61554;BME280;47425;51.976;5.326;2023-11-21T12:18:06;101693.88;;;11.91;71.21
61554;BME280;47425;51.976;5.326;2023-11-21T12:20:33;101699.28;;;11.76;71.72
61554;BME280;47425;51.976;5.326;2023-11-21T12:23:05;101700.06;;;11.84;71.65
61554;BME280;47425;51.976;5.326;2023-11-21T12:25:33;101703.59;;;11.83;71.81
61554;BME280;47425;51.976;5.326;2023-11-21T12:28:00;101705.22;;;11.92;71.71
61554;BME280;47425;51.976;5.326;2023-11-21T12:30:28;101712.78;;;12.20;71.89
61554;BME280;47425;51.976;5.326;2023-11-21T12:32:56;101715.28;;;12.31;71.16
61554;BME280;47425;51.976;5.326;2023-11-21T12:35:24;101704.78;;;12.31;70.81
61554;BME280;47425;51.976;5.326;2023-11-21T12:37:54;101707.44;;;12.28;70.55
61554;BME280;47425;51.976;5.326;2023-11-21T12:40:23;101710.38;;;12.67;71.46
61554;BME280;47425;51.976;5.326;2023-11-21T12:42:51;101712.09;;;12.69;69.73
61554;BME280;47425;51.976;5.326;2023-11-21T12:45:19;101710.63;;;12.50;69.77
61554;BME280;47425;51.976;5.326;2023-11-21T12:47:46;101715.22;;;12.34;69.56
61554;BME280;47425;51.976;5.326;2023-11-21T12:50:14;101713.50;;;12.33;70.32
61554;BME280;47425;51.976;5.326;2023-11-21T12:52:41;101723.75;;;12.51;70.62